sensor_id;sensor_type;location;lat;lon;timestamp;pressure;altitude;pressure_sealevel;temperature;humidity
29569;BME280;16501;51.462;14.346;2023-04-07T00:01:41;100469.38;;;2.26;68.58
29569;BME280;16501;51.462;14.346;2023-04-07T00:04:06;100482.28;;;2.40;68.31
29569;BME280;16501;51.462;14.346;2023-04-07T00:06:31;100466.25;;;2.24;68.65
29569;BME280;16501;51.462;14.346;2023-04-07T00:08:57;100474.88;;;2.30;68.51
29569;BME280;16501;51.462;14.346;2023-04-07T00:11:22;100474.06;;;2.33;68.24
29569;BME280;16501;51.462;14.346;2023-04-07T00:13:48;100469.75;;;2.32;67.78
29569;BME280;16501;51.462;14.346;2023-04-07T00:16:13;100450.47;;;2.21;67.71
29569;BME280;16501;51.462;14.346;2023-04-07T00:18:38;100468.56;;;2.29;67.53
29569;BME280;16501;51.462;14.346;2023-04-07T00:21:04;100467.06;;;2.21;68.30
29569;BME280;16501;51.462;14.346;2023-04-07T00:23:29;100450.63;;;2.06;67.73
29569;BME280;16501;51.462;14.346;2023-04-07T00:25:54;100477.03;;;2.15;67.68
29569;BME280;16501;51.462;14.346;2023-04-07T00:28:20;100458.22;;;1.99;68.66
29569;BME280;16501;51.462;14.346;2023-04-07T00:30:45;100457.41;;;1.98;68.91
29569;BME280;16501;51.462;14.346;2023-04-07T00:33:10;100466.06;;;2.04;68.93
29569;BME280;16501;51.462;14.346;2023-04-07T00:35:35;100464.06;;;2.04;69.17
29569;BME280;16501;51.462;14.346;2023-04-07T00:38:01;100440.47;;;1.93;69.39
29569;BME280;16501;51.462;14.346;2023-04-07T00:40:26;100449.06;;;2.02;69.02
29569;BME280;16501;51.462;14.346;2023-04-07T00:42:52;100448.28;;;2.01;69.37
29569;BME280;16501;51.462;14.346;2023-04-07T00:45:17;100456.13;;;2.10;69.34
29569;BME280;16501;51.462;14.346;2023-04-07T00:47:42;100437.22;;;2.01;69.26
29569;BME280;16501;51.462;14.346;2023-04-07T00:50:08;100450.22;;;2.08;69.51
29569;BME280;16501;51.462;14.346;2023-04-07T00:52:34;100428.22;;;1.94;69.38
29569;BME280;16501;51.462;14.346;2023-04-07T00:54:59;100433.34;;;1.95;69.61
29569;BME280;16501;51.462;14.346;2023-04-07T00:57:25;100443.53;;;2.02;69.54
29569;BME280;16501;51.462;14.346;2023-04-07T00:59:54;100418.34;;;1.93;69.23
29569;BME280;16501;51.462;14.346;2023-04-07T01:02:32;100445.50;;;2.05;69.53
29569;BME280;16501;51.462;14.346;2023-04-07T01:07:50;100406.66;;;1.74;70.43
29569;BME280;16501;51.462;14.346;2023-04-07T01:10:21;100416.94;;;1.74;70.86
29569;BME280;16501;51.462;14.346;2023-04-07T01:12:53;100435.34;;;1.91;71.22
29569;BME280;16501;51.462;14.346;2023-04-07T01:15:21;100416.13;;;1.77;70.93
29569;BME280;16501;51.462;14.346;2023-04-07T01:17:52;100413.69;;;1.82;71.04
29569;BME280;16501;51.462;14.346;2023-04-07T01:20:21;100408.22;;;1.79;71.39
29569;BME280;16501;51.462;14.346;2023-04-07T01:22:53;100396.03;;;1.73;71.99
29569;BME280;16501;51.462;14.346;2023-04-07T01:25:32;100420.88;;;1.76;71.87
29569;BME280;16501;51.462;14.346;2023-04-07T01:28:13;100420.09;;;1.72;71.77
29569;BME280;16501;51.462;14.346;2023-04-07T01:30:40;100418.59;;;1.67;72.77
29569;BME280;16501;51.462;14.346;2023-04-07T01:33:09;100428.09;;;1.63;72.87
29569;BME280;16501;51.462;14.346;2023-04-07T01:35:36;100417.78;;;1.67;73.15
29569;BME280;16501;51.462;14.346;2023-04-07T01:38:02;100387.97;;;1.44;72.95
29569;BME280;16501;51.462;14.346;2023-04-07T01:40:28;100407.19;;;1.58;72.86
29569;BME280;16501;51.462;14.346;2023-04-07T01:42:55;100401.34;;;1.49;73.57
29569;BME280;16501;51.462;14.346;2023-04-07T01:45:22;100407.59;;;1.60;73.37
29569;BME280;16501;51.462;14.346;2023-04-07T01:47:48;100384.78;;;1.49;73.60
29569;BME280;16501;51.462;14.346;2023-04-07T01:50:14;100393.41;;;1.55;74.58
29569;BME280;16501;51.462;14.346;2023-04-07T01:52:41;100391.03;;;1.53;74.72
29569;BME280;16501;51.462;14.346;2023-04-07T01:55:07;100414.97;;;1.70;75.29
29569;BME280;16501;51.462;14.346;2023-04-07T01:57:33;100418.97;;;1.69;75.03
29569;BME280;16501;51.462;14.346;2023-04-07T01:59:59;100407.97;;;1.62;75.40
29569;BME280;16501;51.462;14.346;2023-04-07T02:02:24;100388.72;;;1.52;74.98
29569;BME280;16501;51.462;14.346;2023-04-07T02:04:57;100406.78;;;1.60;75.13
29569;BME280;16501;51.462;14.346;2023-04-07T02:07:49;100398.59;;;1.49;75.27
29569;BME280;16501;51.462;14.346;2023-04-07T02:10:19;100410.72;;;1.62;75.02
29569;BME280;16501;51.462;14.346;2023-04-07T02:12:45;100395.78;;;1.53;75.57
29569;BME280;16501;51.462;14.346;2023-04-07T02:15:11;100386.38;;;1.43;75.62
29569;BME280;16501;51.462;14.346;2023-04-07T02:17:40;100392.66;;;1.50;75.98
29569;BME280;16501;51.462;14.346;2023-04-07T02:20:07;100376.19;;;1.40;75.95
29569;BME280;16501;51.462;14.346;2023-04-07T02:22:33;100377.34;;;1.39;75.73
29569;BME280;16501;51.462;14.346;2023-04-07T02:24:59;100404.50;;;1.51;76.04
29569;BME280;16501;51.462;14.346;2023-04-07T02:27:24;100389.59;;;1.41;76.27
29569;BME280;16501;51.462;14.346;2023-04-07T02:29:50;100384.06;;;1.41;75.91
29569;BME280;16501;51.462;14.346;2023-04-07T02:32:15;100383.25;;;1.41;76.54
29569;BME280;16501;51.462;14.346;2023-04-07T02:34:41;100387.97;;;1.44;76.15
29569;BME280;16501;51.462;14.346;2023-04-07T02:37:07;100381.69;;;1.40;76.53
29569;BME280;16501;51.462;14.346;2023-04-07T02:39:32;100388.03;;;1.37;76.52
29569;BME280;16501;51.462;14.346;2023-04-07T02:41:57;100386.44;;;1.36;76.98
29569;BME280;16501;51.462;14.346;2023-04-07T02:44:23;100384.91;;;1.35;77.13
29569;BME280;16501;51.462;14.346;2023-04-07T02:46:48;100390.00;;;1.40;76.93
29569;BME280;16501;51.462;14.346;2023-04-07T02:49:13;100360.53;;;1.22;77.19
29569;BME280;16501;51.462;14.346;2023-04-07T02:51:38;100387.66;;;1.35;76.90
29569;BME280;16501;51.462;14.346;2023-04-07T02:54:04;100369.94;;;1.28;77.43
29569;BME280;16501;51.462;14.346;2023-04-07T02:56:29;100378.63;;;1.27;77.40
29569;BME280;16501;51.462;14.346;2023-04-07T02:58:55;100382.56;;;1.29;77.87
29569;BME280;16501;51.462;14.346;2023-04-07T03:01:20;100372.72;;;1.25;77.42
29569;BME280;16501;51.462;14.346;2023-04-07T03:03:45;100376.25;;;1.25;77.89
29569;BME280;16501;51.462;14.346;2023-04-07T03:06:12;100342.47;;;1.07;78.19
29569;BME280;16501;51.462;14.346;2023-04-07T03:08:37;100354.28;;;1.11;77.96
29569;BME280;16501;51.462;14.346;2023-04-07T03:11:02;100360.97;;;1.13;78.20
29569;BME280;16501;51.462;14.346;2023-04-07T03:13:27;100355.13;;;1.01;78.41
29569;BME280;16501;51.462;14.346;2023-04-07T03:15:54;100343.34;;;0.97;78.42
29569;BME280;16501;51.462;14.346;2023-04-07T03:18:20;100356.72;;;1.02;78.41
29569;BME280;16501;51.462;14.346;2023-04-07T03:20:47;100364.56;;;1.10;78.68
29569;BME280;16501;51.462;14.346;2023-04-07T03:23:12;100340.59;;;0.97;78.82
29569;BME280;16501;51.462;14.346;2023-04-07T03:25:37;100338.63;;;0.93;78.43
29569;BME280;16501;51.462;14.346;2023-04-07T03:28:03;100323.69;;;0.87;78.96
29569;BME280;16501;51.462;14.346;2023-04-07T03:30:28;100352.00;;;0.99;78.78
29569;BME280;16501;51.462;14.346;2023-04-07T03:32:53;100328.44;;;0.83;79.07
29569;BME280;16501;51.462;14.346;2023-04-07T03:35:19;100350.03;;;0.96;79.41
29569;BME280;16501;51.462;14.346;2023-04-07T03:37:44;100336.38;;;0.78;79.36
29569;BME280;16501;51.462;14.346;2023-04-07T03:40:10;100335.91;;;0.86;79.63
29569;BME280;16501;51.462;14.346;2023-04-07T03:42:35;100344.94;;;0.90;79.54
29569;BME280;16501;51.462;14.346;2023-04-07T03:45:00;100315.53;;;0.66;79.80
29569;BME280;16501;51.462;14.346;2023-04-07T03:47:26;100331.63;;;0.78;79.51
29569;BME280;16501;51.462;14.346;2023-04-07T03:49:51;100342.66;;;0.78;79.88
29569;BME280;16501;51.462;14.346;2023-04-07T03:52:16;100337.13;;;0.78;79.31
29569;BME280;16501;51.462;14.346;2023-04-07T03:54:42;100326.56;;;0.69;79.81
29569;BME280;16501;51.462;14.346;2023-04-07T03:57:07;100345.84;;;0.73;79.79
29569;BME280;16501;51.462;14.346;2023-04-07T03:59:32;100346.63;;;0.77;79.80
29569;BME280;16501;51.462;14.346;2023-04-07T04:01:58;100330.53;;;0.65;80.20
29569;BME280;16501;51.462;14.346;2023-04-07T04:04:23;100335.28;;;0.61;80.64
29569;BME280;16501;51.462;14.346;2023-04-07T04:06:49;100330.97;;;0.60;80.33
29569;BME280;16501;51.462;14.346;2023-04-07T04:09:14;100332.53;;;0.57;80.51
29569;BME280;16501;51.462;14.346;2023-04-07T04:11:40;100349.84;;;0.65;80.50
29569;BME280;16501;51.462;14.346;2023-04-07T04:14:05;100329.38;;;0.59;80.45
29569;BME280;16501;51.462;14.346;2023-04-07T04:16:30;100311.31;;;0.43;80.54
29569;BME280;16501;51.462;14.346;2023-04-07T04:18:56;100359.63;;;0.77;80.19
29569;BME280;16501;51.462;14.346;2023-04-07T04:21:21;100352.56;;;0.75;80.11
29569;BME280;16501;51.462;14.346;2023-04-07T04:23:46;100352.56;;;0.72;80.19
29569;BME280;16501;51.462;14.346;2023-04-07T04:26:12;100345.91;;;0.62;80.33
29569;BME280;16501;51.462;14.346;2023-04-07T04:28:37;100366.78;;;0.67;80.88
29569;BME280;16501;51.462;14.346;2023-04-07T04:31:02;100344.38;;;0.50;81.00
29569;BME280;16501;51.462;14.346;2023-04-07T04:33:27;100329.81;;;0.50;80.35
29569;BME280;16501;51.462;14.346;2023-04-07T04:35:53;100334.13;;;0.54;80.95
29569;BME280;16501;51.462;14.346;2023-04-07T04:38:18;100346.31;;;0.61;81.35
29569;BME280;16501;51.462;14.346;2023-04-07T04:40:43;100343.19;;;0.55;81.63
29569;BME280;16501;51.462;14.346;2023-04-07T04:43:09;100344.38;;;0.58;81.41
29569;BME280;16501;51.462;14.346;2023-04-07T04:45:34;100350.69;;;0.54;81.56
29569;BME280;16501;51.462;14.346;2023-04-07T04:47:59;100356.56;;;0.64;81.55
29569;BME280;16501;51.462;14.346;2023-04-07T04:50:25;100345.13;;;0.62;81.63
29569;BME280;16501;51.462;14.346;2023-04-07T04:52:50;100334.16;;;0.51;81.52
29569;BME280;16501;51.462;14.346;2023-04-07T04:55:15;100349.06;;;0.61;82.00
29569;BME280;16501;51.462;14.346;2023-04-07T04:57:41;100357.34;;;0.61;82.16
29569;BME280;16501;51.462;14.346;2023-04-07T05:00:06;100322.44;;;0.29;82.75
29569;BME280;16501;51.462;14.346;2023-04-07T05:02:32;100355.00;;;0.55;83.28
29569;BME280;16501;51.462;14.346;2023-04-07T05:04:58;100357.41;;;0.50;83.19
29569;BME280;16501;51.462;14.346;2023-04-07T05:07:23;100373.91;;;0.61;83.41
29569;BME280;16501;51.462;14.346;2023-04-07T05:09:48;100355.78;;;0.60;84.02
29569;BME280;16501;51.462;14.346;2023-04-07T05:12:14;100342.06;;;0.49;83.97
29569;BME280;16501;51.462;14.346;2023-04-07T05:14:39;100366.44;;;0.61;84.37
29569;BME280;16501;51.462;14.346;2023-04-07T05:17:05;100347.50;;;0.60;84.78
29569;BME280;16501;51.462;14.346;2023-04-07T05:19:30;100359.31;;;0.64;84.94
29569;BME280;16501;51.462;14.346;2023-04-07T05:21:56;100308.22;;;0.34;84.96
29569;BME280;16501;51.462;14.346;2023-04-07T05:24:21;100340.41;;;0.59;85.12
29569;BME280;16501;51.462;14.346;2023-04-07T05:26:47;100339.66;;;0.54;85.57
29569;BME280;16501;51.462;14.346;2023-04-07T05:29:12;100348.25;;;0.67;86.44
29569;BME280;16501;51.462;14.346;2023-04-07T05:31:37;100371.03;;;0.82;86.24
29569;BME280;16501;51.462;14.346;2023-04-07T05:34:04;100375.34;;;0.87;85.89
29569;BME280;16501;51.462;14.346;2023-04-07T05:36:29;100367.84;;;0.91;86.23
29569;BME280;16501;51.462;14.346;2023-04-07T05:38:58;100365.09;;;0.87;87.06
29569;BME280;16501;51.462;14.346;2023-04-07T05:41:23;100362.28;;;0.94;86.65
29569;BME280;16501;51.462;14.346;2023-04-07T05:43:48;100355.63;;;0.88;86.97
29569;BME280;16501;51.462;14.346;2023-04-07T05:46:13;100338.31;;;0.81;87.70
29569;BME280;16501;51.462;14.346;2023-04-07T05:48:39;100374.88;;;0.99;88.91
29569;BME280;16501;51.462;14.346;2023-04-07T05:51:05;100357.66;;;0.77;90.27
29569;BME280;16501;51.462;14.346;2023-04-07T05:53:30;100361.19;;;0.81;89.19
29569;BME280;16501;51.462;14.346;2023-04-07T05:55:55;100387.91;;;0.99;88.84
29569;BME280;16501;51.462;14.346;2023-04-07T05:58:21;100376.09;;;0.94;87.70
29569;BME280;16501;51.462;14.346;2023-04-07T06:00:46;100376.84;;;0.99;87.67
29569;BME280;16501;51.462;14.346;2023-04-07T06:03:11;100393.72;;;1.11;87.57
29569;BME280;16501;51.462;14.346;2023-04-07T06:05:36;100369.28;;;1.10;87.21
29569;BME280;16501;51.462;14.346;2023-04-07T06:08:01;100345.75;;;0.91;87.43
29569;BME280;16501;51.462;14.346;2023-04-07T06:10:27;100373.97;;;1.20;87.36
29569;BME280;16501;51.462;14.346;2023-04-07T06:12:52;100386.53;;;1.25;87.07
29569;BME280;16501;51.462;14.346;2023-04-07T06:15:17;100355.44;;;1.17;87.86
29569;BME280;16501;51.462;14.346;2023-04-07T06:17:43;100384.84;;;1.42;87.42
29569;BME280;16501;51.462;14.346;2023-04-07T06:20:10;100365.97;;;1.33;85.32
29569;BME280;16501;51.462;14.346;2023-04-07T06:22:37;100359.22;;;1.34;85.62
29569;BME280;16501;51.462;14.346;2023-04-07T06:25:03;100355.59;;;1.44;85.36
29569;BME280;16501;51.462;14.346;2023-04-07T06:27:28;100368.94;;;1.53;83.40
29569;BME280;16501;51.462;14.346;2023-04-07T06:29:55;100378.31;;;1.66;82.66
29569;BME280;16501;51.462;14.346;2023-04-07T06:32:20;100353.09;;;1.61;83.43
29569;BME280;16501;51.462;14.346;2023-04-07T06:34:46;100357.41;;;1.62;83.74
29569;BME280;16501;51.462;14.346;2023-04-07T06:37:11;100380.84;;;1.92;83.40
29569;BME280;16501;51.462;14.346;2023-04-07T06:39:36;100349.78;;;1.77;79.95
29569;BME280;16501;51.462;14.346;2023-04-07T06:42:02;100372.13;;;1.93;81.27
29569;BME280;16501;51.462;14.346;2023-04-07T06:44:27;100319.53;;;1.62;81.50
29569;BME280;16501;51.462;14.346;2023-04-07T06:46:52;100350.88;;;1.83;81.30
29569;BME280;16501;51.462;14.346;2023-04-07T06:49:19;100344.91;;;1.88;81.83
29569;BME280;16501;51.462;14.346;2023-04-07T06:51:45;100356.22;;;2.04;81.35
29569;BME280;16501;51.462;14.346;2023-04-07T06:54:10;100362.03;;;2.14;80.60
29569;BME280;16501;51.462;14.346;2023-04-07T06:56:39;100352.53;;;2.15;81.67
29569;BME280;16501;51.462;14.346;2023-04-07T06:59:04;100358.59;;;2.02;79.91
29569;BME280;16501;51.462;14.346;2023-04-07T07:01:30;100358.16;;;2.07;80.16
29569;BME280;16501;51.462;14.346;2023-04-07T07:03:55;100375.44;;;2.15;80.91
29569;BME280;16501;51.462;14.346;2023-04-07T07:06:20;100389.66;;;2.17;81.81
29569;BME280;16501;51.462;14.346;2023-04-07T07:08:45;100382.88;;;2.22;82.63
29569;BME280;16501;51.462;14.346;2023-04-07T07:11:11;100386.38;;;2.26;82.44
29569;BME280;16501;51.462;14.346;2023-04-07T07:13:36;100355.03;;;2.02;83.45
29569;BME280;16501;51.462;14.346;2023-04-07T07:16:01;100388.78;;;2.24;84.75
29569;BME280;16501;51.462;14.346;2023-04-07T07:18:26;100356.94;;;2.08;83.76
29569;BME280;16501;51.462;14.346;2023-04-07T07:20:52;100360.13;;;2.07;84.01
29569;BME280;16501;51.462;14.346;2023-04-07T07:23:17;100386.75;;;2.32;84.94
29569;BME280;16501;51.462;14.346;2023-04-07T07:25:42;100384.44;;;2.23;83.12
29569;BME280;16501;51.462;14.346;2023-04-07T07:28:08;100377.34;;;2.22;81.87
29569;BME280;16501;51.462;14.346;2023-04-07T07:30:33;100387.84;;;2.38;80.78
29569;BME280;16501;51.462;14.346;2023-04-07T07:32:59;100376.91;;;2.27;79.13
29569;BME280;16501;51.462;14.346;2023-04-07T07:35:24;100367.59;;;2.10;78.50
29569;BME280;16501;51.462;14.346;2023-04-07T07:37:50;100380.41;;;2.31;78.67
29569;BME280;16501;51.462;14.346;2023-04-07T07:40:16;100359.94;;;2.25;77.32
29569;BME280;16501;51.462;14.346;2023-04-07T07:42:41;100378.84;;;2.30;77.90
29569;BME280;16501;51.462;14.346;2023-04-07T07:45:07;100386.25;;;2.40;78.79
29569;BME280;16501;51.462;14.346;2023-04-07T07:47:32;100400.63;;;2.59;79.38
29569;BME280;16501;51.462;14.346;2023-04-07T07:49:58;100396.41;;;2.47;78.21
29569;BME280;16501;51.462;14.346;2023-04-07T07:52:23;100397.09;;;2.58;76.76
29569;BME280;16501;51.462;14.346;2023-04-07T07:54:49;100404.84;;;2.71;76.25
29569;BME280;16501;51.462;14.346;2023-04-07T07:57:14;100367.88;;;2.54;76.91
29569;BME280;16501;51.462;14.346;2023-04-07T07:59:40;100401.59;;;2.76;77.57
29569;BME280;16501;51.462;14.346;2023-04-07T08:02:06;100400.44;;;2.73;76.82
29569;BME280;16501;51.462;14.346;2023-04-07T08:04:31;100387.44;;;2.70;77.48
29569;BME280;16501;51.462;14.346;2023-04-07T08:06:57;100383.09;;;2.69;76.87
29569;BME280;16501;51.462;14.346;2023-04-07T08:09:22;100394.84;;;2.80;76.74
29569;BME280;16501;51.462;14.346;2023-04-07T08:11:48;100385.72;;;2.80;75.75
29569;BME280;16501;51.462;14.346;2023-04-07T08:14:14;100378.22;;;2.80;76.42
29569;BME280;16501;51.462;14.346;2023-04-07T08:16:39;100353.28;;;2.80;77.38
29569;BME280;16501;51.462;14.346;2023-04-07T08:19:04;100394.22;;;2.96;76.31
29569;BME280;16501;51.462;14.346;2023-04-07T08:21:30;100404.66;;;3.12;76.77
29569;BME280;16501;51.462;14.346;2023-04-07T08:23:55;100396.41;;;3.09;77.07
29569;BME280;16501;51.462;14.346;2023-04-07T08:26:21;100373.09;;;3.06;76.21
29569;BME280;16501;51.462;14.346;2023-04-07T08:28:47;100405.63;;;3.26;76.05
29569;BME280;16501;51.462;14.346;2023-04-07T08:31:13;100405.56;;;3.33;77.44
29569;BME280;16501;51.462;14.346;2023-04-07T08:33:38;100373.53;;;3.28;77.01
29569;BME280;16501;51.462;14.346;2023-04-07T08:36:03;100409.28;;;3.46;77.25
29569;BME280;16501;51.462;14.346;2023-04-07T08:38:29;100390.38;;;3.41;77.29
29569;BME280;16501;51.462;14.346;2023-04-07T08:41:10;100423.78;;;3.57;75.31
29569;BME280;16501;51.462;14.346;2023-04-07T08:43:37;100416.25;;;3.58;74.65
29569;BME280;16501;51.462;14.346;2023-04-07T08:46:04;100399.66;;;3.54;75.66
29569;BME280;16501;51.462;14.346;2023-04-07T08:48:30;100424.72;;;3.71;74.22
29569;BME280;16501;51.462;14.346;2023-04-07T08:50:59;100414.03;;;3.73;74.26
29569;BME280;16501;51.462;14.346;2023-04-07T08:53:34;100404.72;;;3.59;74.01
29569;BME280;16501;51.462;14.346;2023-04-07T08:56:01;100401.13;;;3.63;73.82
29569;BME280;16501;51.462;14.346;2023-04-07T08:58:28;100382.19;;;3.57;73.69
29569;BME280;16501;51.462;14.346;2023-04-07T09:00:54;100397.00;;;3.71;73.31
29569;BME280;16501;51.462;14.346;2023-04-07T09:03:21;100404.13;;;3.72;73.17
29569;BME280;16501;51.462;14.346;2023-04-07T09:05:48;100419.69;;;3.89;74.11
29569;BME280;16501;51.462;14.346;2023-04-07T09:08:13;100394.59;;;3.73;73.33
29569;BME280;16501;51.462;14.346;2023-04-07T09:10:39;100405.94;;;3.82;73.51
29569;BME280;16501;51.462;14.346;2023-04-07T09:13:04;100393.88;;;3.92;73.23
29569;BME280;16501;51.462;14.346;2023-04-07T09:15:30;100389.16;;;3.89;72.89
29569;BME280;16501;51.462;14.346;2023-04-07T09:17:56;100369.53;;;3.80;71.95
29569;BME280;16501;51.462;14.346;2023-04-07T09:20:21;100385.84;;;3.98;72.87
29569;BME280;16501;51.462;14.346;2023-04-07T09:22:47;100388.47;;;4.05;73.35
29569;BME280;16501;51.462;14.346;2023-04-07T09:25:15;100402.03;;;4.23;72.77
29569;BME280;16501;51.462;14.346;2023-04-07T09:27:52;100407.94;;;4.25;73.41
29569;BME280;16501;51.462;14.346;2023-04-07T09:30:18;100406.13;;;4.35;72.91
29569;BME280;16501;51.462;14.346;2023-04-07T09:32:43;100370.69;;;4.23;72.51
29569;BME280;16501;51.462;14.346;2023-04-07T09:35:09;100387.50;;;4.36;71.61
29569;BME280;16501;51.462;14.346;2023-04-07T09:37:34;100382.94;;;4.45;70.83
29569;BME280;16501;51.462;14.346;2023-04-07T09:39:59;100386.38;;;4.53;70.45
29569;BME280;16501;51.462;14.346;2023-04-07T09:42:26;100385.22;;;4.70;68.47
29569;BME280;16501;51.462;14.346;2023-04-07T09:44:57;100401.06;;;4.90;67.04
29569;BME280;16501;51.462;14.346;2023-04-07T09:47:26;100400.03;;;5.00;66.77
29569;BME280;16501;51.462;14.346;2023-04-07T09:49:54;100343.97;;;4.69;65.32
29569;BME280;16501;51.462;14.346;2023-04-07T09:52:49;100396.16;;;5.14;65.40
29569;BME280;16501;51.462;14.346;2023-04-07T09:55:21;100398.84;;;5.18;64.69
29569;BME280;16501;51.462;14.346;2023-04-07T09:57:50;100383.50;;;5.29;63.97
29569;BME280;16501;51.462;14.346;2023-04-07T10:00:16;100396.19;;;5.47;66.03
29569;BME280;16501;51.462;14.346;2023-04-07T10:02:42;100379.22;;;5.41;63.91
29569;BME280;16501;51.462;14.346;2023-04-07T10:05:09;100382.28;;;5.47;63.67
29569;BME280;16501;51.462;14.346;2023-04-07T10:07:34;100377.59;;;5.44;62.59
29569;BME280;16501;51.462;14.346;2023-04-07T10:10:00;100390.00;;;5.72;61.80
29569;BME280;16501;51.462;14.346;2023-04-07T10:12:26;100386.78;;;5.74;62.03
29569;BME280;16501;51.462;14.346;2023-04-07T10:14:51;100365.63;;;5.76;60.56
29569;BME280;16501;51.462;14.346;2023-04-07T10:17:20;100387.72;;;5.83;61.53
29569;BME280;16501;51.462;14.346;2023-04-07T10:19:47;100375.56;;;5.77;62.90
29569;BME280;16501;51.462;14.346;2023-04-07T10:22:13;100394.84;;;5.84;61.16
29569;BME280;16501;51.462;14.346;2023-04-07T10:24:55;100377.03;;;5.65;61.23
29569;BME280;16501;51.462;14.346;2023-04-07T10:27:30;100382.94;;;5.67;61.53
29569;BME280;16501;51.462;14.346;2023-04-07T10:29:57;100375.66;;;5.57;61.20
29569;BME280;16501;51.462;14.346;2023-04-07T10:32:23;100388.41;;;5.71;61.50
29569;BME280;16501;51.462;14.346;2023-04-07T10:37:15;100378.72;;;5.63;60.72
29569;BME280;16501;51.462;14.346;2023-04-07T10:39:45;100356.63;;;5.56;61.10
29569;BME280;16501;51.462;14.346;2023-04-07T10:45:07;100356.63;;;5.56;59.60
29569;BME280;16501;51.462;14.346;2023-04-07T10:47:34;100388.59;;;5.80;60.77
29569;BME280;16501;51.462;14.346;2023-04-07T10:50:22;100383.19;;;5.90;62.14
29569;BME280;16501;51.462;14.346;2023-04-07T10:53:03;100367.19;;;5.77;60.93
29569;BME280;16501;51.462;14.346;2023-04-07T11:00:37;100372.91;;;5.86;61.93
29569;BME280;16501;51.462;14.346;2023-04-07T11:03:12;100383.09;;;5.93;62.86
29569;BME280;16501;51.462;14.346;2023-04-07T11:05:41;100368.41;;;5.93;63.43
29569;BME280;16501;51.462;14.346;2023-04-07T11:08:06;100357.91;;;5.84;61.31
29569;BME280;16501;51.462;14.346;2023-04-07T11:10:35;100363.53;;;5.97;60.24
29569;BME280;16501;51.462;14.346;2023-04-07T11:13:06;100384.06;;;6.03;61.34
29569;BME280;16501;51.462;14.346;2023-04-07T11:15:35;100373.81;;;6.00;61.04
29569;BME280;16501;51.462;14.346;2023-04-07T11:18:13;100377.69;;;6.02;59.44
29569;BME280;16501;51.462;14.346;2023-04-07T11:23:06;100385.59;;;6.04;56.35
29569;BME280;16501;51.462;14.346;2023-04-07T11:25:31;100353.19;;;5.81;53.75
29569;BME280;16501;51.462;14.346;2023-04-07T11:27:58;100373.34;;;5.85;55.00
29569;BME280;16501;51.462;14.346;2023-04-07T11:30:23;100378.75;;;5.92;54.25
29569;BME280;16501;51.462;14.346;2023-04-07T11:32:49;100376.94;;;5.85;55.71
29569;BME280;16501;51.462;14.346;2023-04-07T11:35:15;100381.59;;;5.89;54.44
29569;BME280;16501;51.462;14.346;2023-04-07T11:37:40;100374.94;;;5.86;54.65
29569;BME280;16501;51.462;14.346;2023-04-07T11:40:07;100372.06;;;5.90;57.55
29569;BME280;16501;51.462;14.346;2023-04-07T11:42:37;100382.94;;;6.00;56.44
29569;BME280;16501;51.462;14.346;2023-04-07T11:45:04;100373.19;;;5.92;57.29
29569;BME280;16501;51.462;14.346;2023-04-07T11:47:37;100381.00;;;5.97;58.85
29569;BME280;16501;51.462;14.346;2023-04-07T11:50:03;100372.38;;;5.92;55.50
29569;BME280;16501;51.462;14.346;2023-04-07T11:52:28;100382.81;;;6.04;57.08
29569;BME280;16501;51.462;14.346;2023-04-07T11:55:04;100370.69;;;5.98;55.82
29569;BME280;16501;51.462;14.346;2023-04-07T11:57:30;100378.59;;;5.99;55.74
29569;BME280;16501;51.462;14.346;2023-04-07T12:00:09;100378.28;;;5.94;56.12
29569;BME280;16501;51.462;14.346;2023-04-07T12:02:35;100363.78;;;5.86;56.85
29569;BME280;16501;51.462;14.346;2023-04-07T12:05:01;100375.97;;;5.92;58.28
29569;BME280;16501;51.462;14.346;2023-04-07T12:07:26;100387.03;;;5.96;57.06
29569;BME280;16501;51.462;14.346;2023-04-07T12:09:55;100378.75;;;6.09;58.41
29569;BME280;16501;51.462;14.346;2023-04-07T12:12:28;100372.66;;;5.97;56.96
29569;BME280;16501;51.462;14.346;2023-04-07T12:14:55;100372.84;;;6.07;57.81
29569;BME280;16501;51.462;14.346;2023-04-07T12:17:21;100394.03;;;6.17;57.27
29569;BME280;16501;51.462;14.346;2023-04-07T12:19:47;100377.53;;;6.10;57.17
29569;BME280;16501;51.462;14.346;2023-04-07T12:22:12;100390.81;;;6.18;56.93
29569;BME280;16501;51.462;14.346;2023-04-07T12:24:37;100359.63;;;5.94;58.05
29569;BME280;16501;51.462;14.346;2023-04-07T12:27:03;100350.59;;;5.74;59.20
29569;BME280;16501;51.462;14.346;2023-04-07T12:29:28;100398.84;;;6.00;60.83
29569;BME280;16501;51.462;14.346;2023-04-07T12:31:54;100373.81;;;5.83;60.88
29569;BME280;16501;51.462;14.346;2023-04-07T12:34:20;100385.19;;;5.89;60.78
29569;BME280;16501;51.462;14.346;2023-04-07T12:36:45;100386.16;;;5.82;61.04
29569;BME280;16501;51.462;14.346;2023-04-07T12:39:11;100375.03;;;5.82;59.09
29569;BME280;16501;51.462;14.346;2023-04-07T12:41:36;100383.22;;;5.73;56.47
29569;BME280;16501;51.462;14.346;2023-04-07T12:44:02;100405.28;;;5.80;55.38
29569;BME280;16501;51.462;14.346;2023-04-07T12:46:28;100397.91;;;5.74;52.94
29569;BME280;16501;51.462;14.346;2023-04-07T12:48:53;100397.03;;;5.77;59.32
29569;BME280;16501;51.462;14.346;2023-04-07T12:51:18;100385.72;;;5.67;54.52
29569;BME280;16501;51.462;14.346;2023-04-07T12:53:44;100389.47;;;5.77;56.02
29569;BME280;16501;51.462;14.346;2023-04-07T12:56:09;100406.53;;;5.96;55.43
29569;BME280;16501;51.462;14.346;2023-04-07T12:58:37;100363.91;;;5.82;57.47
29569;BME280;16501;51.462;14.346;2023-04-07T13:01:02;100386.75;;;5.90;57.67
29569;BME280;16501;51.462;14.346;2023-04-07T13:03:27;100391.28;;;6.00;58.33